FDX85V DAAG-DAOO
Flight info
| Callsign | FDX85V |
|---|---|
| Flight time | 0h 39m |
| Altitude | 36000 |
| Route | CHE1B DAHRA UA411 MOS |
| Aircraft | MD11/H-SDE1E2E3FGHIJ2J3J4J5M1RWXY/LB1D1 |
Departure
| Time | 2026-04-29 17:47 |
|---|---|
| Airport | Houari Boumediene Airport (DAAG) |
Arrival
| Time | 2026-04-29 18:26 |
|---|---|
| Airport | Oran Es-Sénia (Ahmed Ben Bella) International Airport (DAOO) |
| Time | Latitude | Longitude | Altitude | Speed | Heading |
|---|---|---|---|---|---|
| 2026-04-29 17:12 | 36.69742 | 3.21434 | 70 ft | 0 kts | 208° |
| 2026-04-29 17:41 | 36.69736 | 3.21429 | 68 ft | 1 kts | 213° |
| 2026-04-29 17:41 | 36.69723 | 3.21418 | 71 ft | 4 kts | 213° |
| 2026-04-29 17:42 | 36.69695 | 3.21397 | 66 ft | 6 kts | 208° |
| 2026-04-29 17:42 | 36.69655 | 3.21391 | 72 ft | 6 kts | 171° |
| 2026-04-29 17:42 | 36.69605 | 3.21411 | 72 ft | 10 kts | 160° |
| 2026-04-29 17:42 | 36.69537 | 3.21441 | 71 ft | 10 kts | 162° |
| 2026-04-29 17:43 | 36.69467 | 3.21469 | 69 ft | 11 kts | 162° |
| 2026-04-29 17:43 | 36.69400 | 3.21466 | 72 ft | 9 kts | 206° |
| 2026-04-29 17:43 | 36.69357 | 3.21412 | 68 ft | 8 kts | 230° |
| 2026-04-29 17:43 | 36.69321 | 3.21356 | 68 ft | 8 kts | 231° |
| 2026-04-29 17:44 | 36.69287 | 3.21302 | 70 ft | 8 kts | 232° |
| 2026-04-29 17:44 | 36.69254 | 3.21246 | 69 ft | 8 kts | 233° |
| 2026-04-29 17:44 | 36.69221 | 3.21192 | 68 ft | 8 kts | 232° |
| 2026-04-29 17:44 | 36.69188 | 3.21139 | 70 ft | 8 kts | 232° |
| 2026-04-29 17:45 | 36.69159 | 3.21091 | 83 ft | 6 kts | 232° |
| 2026-04-29 17:45 | 36.69139 | 3.21059 | 85 ft | 3 kts | 232° |
| 2026-04-29 17:45 | 36.69130 | 3.21044 | 86 ft | 3 kts | 233° |
| 2026-04-29 17:45 | 36.69118 | 3.21016 | 87 ft | 5 kts | 247° |
| 2026-04-29 17:46 | 36.69114 | 3.20957 | 84 ft | 9 kts | 271° |
| 2026-04-29 17:46 | 36.69119 | 3.20732 | 87 ft | 63 kts | 272° |
| 2026-04-29 17:46 | 36.69134 | 3.20201 | 86 ft | 121 kts | 271° |
| 2026-04-29 17:46 | 36.69157 | 3.18847 | 166 ft | 182 kts | 272° |
| 2026-04-29 17:47 | 36.69192 | 3.17158 | 797 ft | 198 kts | 274° |
| 2026-04-29 17:47 | 36.69473 | 3.15651 | 2215 ft | 175 kts | 301° |
| 2026-04-29 17:47 | 36.70358 | 3.14732 | 3339 ft | 170 kts | 346° |
| 2026-04-29 17:47 | 36.72158 | 3.14873 | 3947 ft | 228 kts | 14° |
| 2026-04-29 17:48 | 36.73242 | 3.15231 | 4070 ft | 255 kts | 15° |
| 2026-04-29 17:48 | 36.75064 | 3.15590 | 4548 ft | 272 kts | 0° |
| 2026-04-29 17:48 | 36.76927 | 3.15168 | 5254 ft | 276 kts | 337° |
| 2026-04-29 17:48 | 36.78644 | 3.14060 | 6022 ft | 278 kts | 327° |
| 2026-04-29 17:49 | 36.80296 | 3.12777 | 6780 ft | 279 kts | 325° |
| 2026-04-29 17:49 | 36.81939 | 3.11465 | 7561 ft | 281 kts | 324° |
| 2026-04-29 17:49 | 36.83571 | 3.10164 | 8635 ft | 281 kts | 324° |
| 2026-04-29 17:49 | 36.85238 | 3.08845 | 9738 ft | 283 kts | 323° |
| 2026-04-29 17:50 | 36.86933 | 3.07505 | 10301 ft | 306 kts | 324° |
| 2026-04-29 17:50 | 36.88850 | 3.05986 | 10437 ft | 342 kts | 324° |
| 2026-04-29 17:50 | 36.90935 | 3.04348 | 11087 ft | 357 kts | 324° |
| 2026-04-29 17:50 | 36.93046 | 3.02703 | 12068 ft | 362 kts | 325° |
| 2026-04-29 17:51 | 36.95191 | 3.01035 | 13041 ft | 366 kts | 325° |
| 2026-04-29 17:51 | 36.97368 | 2.99331 | 13963 ft | 369 kts | 323° |
| 2026-04-29 17:51 | 36.99239 | 2.97188 | 14744 ft | 367 kts | 305° |
| 2026-04-29 17:51 | 37.00452 | 2.94411 | 15513 ft | 367 kts | 287° |
| 2026-04-29 17:52 | 37.00876 | 2.91258 | 16278 ft | 368 kts | 268° |
| 2026-04-29 17:52 | 37.00693 | 2.89148 | 16784 ft | 370 kts | 257° |
| 2026-04-29 17:52 | 36.99247 | 2.85239 | 17791 ft | 376 kts | 234° |
| 2026-04-29 17:52 | 36.97461 | 2.82797 | 18446 ft | 382 kts | 225° |
| 2026-04-29 17:53 | 36.95502 | 2.80555 | 19076 ft | 386 kts | 223° |
| 2026-04-29 17:53 | 36.93470 | 2.78328 | 19697 ft | 390 kts | 223° |
| 2026-04-29 17:53 | 36.91439 | 2.76123 | 20300 ft | 393 kts | 223° |
| 2026-04-29 17:53 | 36.89359 | 2.73874 | 20911 ft | 397 kts | 223° |
| 2026-04-29 17:54 | 36.87263 | 2.71608 | 21510 ft | 400 kts | 222° |
| 2026-04-29 17:54 | 36.85150 | 2.69315 | 22141 ft | 404 kts | 223° |
| 2026-04-29 17:54 | 36.83123 | 2.66875 | 22781 ft | 407 kts | 228° |
| 2026-04-29 17:54 | 36.81272 | 2.64169 | 23373 ft | 411 kts | 233° |
| 2026-04-29 17:55 | 36.79601 | 2.61257 | 23930 ft | 414 kts | 237° |
| 2026-04-29 17:55 | 36.78055 | 2.58210 | 24507 ft | 417 kts | 240° |
| 2026-04-29 17:55 | 36.76575 | 2.55081 | 25095 ft | 420 kts | 241° |
| 2026-04-29 17:55 | 36.75142 | 2.51943 | 25684 ft | 423 kts | 242° |
| 2026-04-29 17:56 | 36.73692 | 2.48726 | 26265 ft | 426 kts | 242° |
| 2026-04-29 17:56 | 36.72227 | 2.45470 | 26735 ft | 431 kts | 243° |
| 2026-04-29 17:56 | 36.70760 | 2.42218 | 27101 ft | 431 kts | 243° |
| 2026-04-29 17:56 | 36.69284 | 2.38954 | 27488 ft | 433 kts | 243° |
| 2026-04-29 17:57 | 36.67799 | 2.35682 | 27821 ft | 433 kts | 243° |
| 2026-04-29 17:57 | 36.66339 | 2.32471 | 27914 ft | 427 kts | 243° |
| 2026-04-29 17:57 | 36.64896 | 2.29307 | 27926 ft | 417 kts | 243° |
| 2026-04-29 17:57 | 36.63465 | 2.26169 | 27926 ft | 415 kts | 243° |
| 2026-04-29 17:58 | 36.62038 | 2.23041 | 27934 ft | 415 kts | 243° |
| 2026-04-29 17:58 | 36.60612 | 2.19917 | 27934 ft | 415 kts | 243° |
| 2026-04-29 17:58 | 36.59249 | 2.16752 | 27933 ft | 414 kts | 246° |
| 2026-04-29 17:58 | 36.58045 | 2.13510 | 27933 ft | 413 kts | 248° |
| 2026-04-29 17:59 | 36.56919 | 2.10220 | 27932 ft | 413 kts | 249° |
| 2026-04-29 17:59 | 36.55823 | 2.06919 | 27933 ft | 413 kts | 250° |
| 2026-04-29 17:59 | 36.54732 | 2.03618 | 27934 ft | 413 kts | 250° |
| 2026-04-29 17:59 | 36.53637 | 2.00319 | 27931 ft | 412 kts | 249° |
| 2026-04-29 18:00 | 36.52549 | 1.97062 | 27927 ft | 412 kts | 249° |
| 2026-04-29 18:00 | 36.51444 | 1.93770 | 27931 ft | 412 kts | 249° |
| 2026-04-29 18:00 | 36.50333 | 1.90475 | 27926 ft | 412 kts | 249° |
| 2026-04-29 18:00 | 36.49222 | 1.87185 | 27931 ft | 412 kts | 249° |
| 2026-04-29 18:01 | 36.48109 | 1.83898 | 27929 ft | 412 kts | 249° |
| 2026-04-29 18:01 | 36.46998 | 1.80621 | 27929 ft | 412 kts | 249° |
| 2026-04-29 18:01 | 36.45884 | 1.77336 | 27925 ft | 412 kts | 249° |
| 2026-04-29 18:01 | 36.44782 | 1.74091 | 27927 ft | 412 kts | 249° |
| 2026-04-29 18:02 | 36.43667 | 1.70815 | 27922 ft | 412 kts | 249° |
| 2026-04-29 18:02 | 36.42553 | 1.67541 | 27924 ft | 412 kts | 249° |
| 2026-04-29 18:02 | 36.41438 | 1.64269 | 27923 ft | 412 kts | 249° |
| 2026-04-29 18:02 | 36.40318 | 1.60984 | 27921 ft | 411 kts | 249° |
| 2026-04-29 18:03 | 36.39200 | 1.57710 | 27917 ft | 412 kts | 249° |
| 2026-04-29 18:03 | 36.38081 | 1.54436 | 27918 ft | 412 kts | 249° |
| 2026-04-29 18:03 | 36.36961 | 1.51163 | 27914 ft | 411 kts | 249° |
| 2026-04-29 18:03 | 36.35865 | 1.47939 | 27915 ft | 410 kts | 249° |
| 2026-04-29 18:04 | 36.34764 | 1.44675 | 27916 ft | 410 kts | 249° |
| 2026-04-29 18:04 | 36.33668 | 1.41409 | 27912 ft | 410 kts | 249° |
| 2026-04-29 18:04 | 36.32575 | 1.38140 | 27913 ft | 410 kts | 249° |
| 2026-04-29 18:04 | 36.31484 | 1.34877 | 27910 ft | 410 kts | 249° |
| 2026-04-29 18:05 | 36.30392 | 1.31608 | 27912 ft | 410 kts | 249° |
| 2026-04-29 18:05 | 36.29299 | 1.28344 | 27911 ft | 410 kts | 249° |
| 2026-04-29 18:05 | 36.28219 | 1.25118 | 27912 ft | 410 kts | 249° |
| 2026-04-29 18:05 | 36.27123 | 1.21850 | 27910 ft | 409 kts | 249° |
| 2026-04-29 18:06 | 36.26027 | 1.18586 | 27912 ft | 410 kts | 249° |
| 2026-04-29 18:06 | 36.24928 | 1.15318 | 27917 ft | 410 kts | 249° |
| 2026-04-29 18:06 | 36.23830 | 1.12056 | 27901 ft | 408 kts | 249° |
| 2026-04-29 18:06 | 36.22735 | 1.08806 | 27913 ft | 408 kts | 249° |
| 2026-04-29 18:07 | 36.21654 | 1.05600 | 27917 ft | 408 kts | 249° |
| 2026-04-29 18:07 | 36.20558 | 1.02353 | 27919 ft | 408 kts | 249° |
| 2026-04-29 18:07 | 36.19459 | 0.99101 | 27919 ft | 408 kts | 249° |
| 2026-04-29 18:07 | 36.18360 | 0.95852 | 27204 ft | 410 kts | 249° |
| 2026-04-29 18:08 | 36.17266 | 0.92623 | 26358 ft | 409 kts | 249° |
| 2026-04-29 18:08 | 36.16158 | 0.89354 | 25546 ft | 413 kts | 249° |
| 2026-04-29 18:08 | 36.15057 | 0.86111 | 24761 ft | 416 kts | 249° |
| 2026-04-29 18:08 | 36.13934 | 0.82804 | 24064 ft | 415 kts | 248° |
| 2026-04-29 18:09 | 36.12816 | 0.79519 | 23387 ft | 413 kts | 248° |
| 2026-04-29 18:09 | 36.11704 | 0.76256 | 22678 ft | 409 kts | 248° |
| 2026-04-29 18:09 | 36.10599 | 0.73016 | 22047 ft | 406 kts | 248° |
| 2026-04-29 18:09 | 36.09503 | 0.69804 | 21439 ft | 403 kts | 248° |
| 2026-04-29 18:10 | 36.08427 | 0.66657 | 20859 ft | 400 kts | 247° |
| 2026-04-29 18:10 | 36.07346 | 0.63497 | 20273 ft | 397 kts | 247° |
| 2026-04-29 18:10 | 36.06273 | 0.60361 | 19687 ft | 394 kts | 247° |
| 2026-04-29 18:10 | 36.05209 | 0.57258 | 19118 ft | 391 kts | 246° |
| 2026-04-29 18:11 | 36.04142 | 0.54168 | 18549 ft | 388 kts | 246° |
| 2026-04-29 18:11 | 36.03091 | 0.51149 | 17949 ft | 386 kts | 246° |
| 2026-04-29 18:11 | 36.02036 | 0.48115 | 17342 ft | 383 kts | 246° |
| 2026-04-29 18:11 | 36.00993 | 0.45108 | 16763 ft | 379 kts | 246° |
| 2026-04-29 18:12 | 35.99960 | 0.42123 | 16206 ft | 376 kts | 246° |
| 2026-04-29 18:12 | 35.98932 | 0.39151 | 15662 ft | 374 kts | 246° |
| 2026-04-29 18:12 | 35.97915 | 0.36208 | 15130 ft | 371 kts | 246° |
| 2026-04-29 18:12 | 35.96905 | 0.33286 | 14597 ft | 368 kts | 246° |
| 2026-04-29 18:13 | 35.95916 | 0.30426 | 14088 ft | 365 kts | 246° |
| 2026-04-29 18:13 | 35.94920 | 0.27547 | 13522 ft | 362 kts | 246° |
| 2026-04-29 18:13 | 35.93932 | 0.24698 | 12969 ft | 360 kts | 246° |
| 2026-04-29 18:13 | 35.92946 | 0.21855 | 12437 ft | 358 kts | 246° |
| 2026-04-29 18:14 | 35.91980 | 0.19071 | 11931 ft | 356 kts | 246° |
| 2026-04-29 18:14 | 35.91005 | 0.16271 | 11447 ft | 354 kts | 245° |
| 2026-04-29 18:14 | 35.89802 | 0.13628 | 11123 ft | 352 kts | 235° |
| 2026-04-29 18:14 | 35.88363 | 0.11292 | 11000 ft | 329 kts | 231° |
| 2026-04-29 18:15 | 35.86949 | 0.09210 | 10901 ft | 304 kts | 229° |
| 2026-04-29 18:15 | 35.85733 | 0.07197 | 10785 ft | 283 kts | 239° |
| 2026-04-29 18:15 | 35.84862 | 0.05056 | 10694 ft | 277 kts | 245° |
| 2026-04-29 18:15 | 35.84107 | 0.02907 | 10550 ft | 277 kts | 246° |
| 2026-04-29 18:16 | 35.83373 | 0.00737 | 10233 ft | 271 kts | 246° |
| 2026-04-29 18:16 | 35.82656 | -0.01400 | 9763 ft | 269 kts | 246° |
| 2026-04-29 18:16 | 35.81943 | -0.03527 | 9274 ft | 266 kts | 247° |
| 2026-04-29 18:16 | 35.81242 | -0.05620 | 8801 ft | 263 kts | 247° |
| 2026-04-29 18:17 | 35.80548 | -0.07694 | 8356 ft | 259 kts | 247° |
| 2026-04-29 18:17 | 35.79861 | -0.09742 | 7912 ft | 256 kts | 247° |
| 2026-04-29 18:17 | 35.79186 | -0.11754 | 7527 ft | 251 kts | 247° |
| 2026-04-29 18:17 | 35.78534 | -0.13698 | 7149 ft | 247 kts | 247° |
| 2026-04-29 18:18 | 35.77882 | -0.15639 | 6775 ft | 243 kts | 247° |
| 2026-04-29 18:18 | 35.77240 | -0.17550 | 6390 ft | 240 kts | 247° |
| 2026-04-29 18:18 | 35.76606 | -0.19435 | 6014 ft | 237 kts | 248° |
| 2026-04-29 18:18 | 35.75977 | -0.21305 | 5628 ft | 233 kts | 248° |
| 2026-04-29 18:19 | 35.75365 | -0.23121 | 5312 ft | 226 kts | 248° |
| 2026-04-29 18:19 | 35.74765 | -0.24899 | 4993 ft | 224 kts | 249° |
| 2026-04-29 18:19 | 35.74168 | -0.26669 | 4688 ft | 223 kts | 250° |
| 2026-04-29 18:19 | 35.73583 | -0.28407 | 4372 ft | 223 kts | 249° |
| 2026-04-29 18:20 | 35.72988 | -0.30172 | 4056 ft | 222 kts | 249° |
| 2026-04-29 18:20 | 35.72398 | -0.31923 | 3752 ft | 221 kts | 249° |
| 2026-04-29 18:20 | 35.71798 | -0.33669 | 3432 ft | 220 kts | 248° |
| 2026-04-29 18:20 | 35.71202 | -0.35376 | 3217 ft | 214 kts | 248° |
| 2026-04-29 18:21 | 35.70638 | -0.36997 | 3178 ft | 196 kts | 248° |
| 2026-04-29 18:21 | 35.70123 | -0.38491 | 3230 ft | 188 kts | 249° |
| 2026-04-29 18:21 | 35.69625 | -0.39942 | 3242 ft | 185 kts | 249° |
| 2026-04-29 18:21 | 35.69125 | -0.41402 | 3243 ft | 185 kts | 249° |
| 2026-04-29 18:22 | 35.68626 | -0.42867 | 3262 ft | 185 kts | 249° |
| 2026-04-29 18:22 | 35.68125 | -0.44338 | 3139 ft | 185 kts | 248° |
| 2026-04-29 18:22 | 35.67634 | -0.45777 | 2886 ft | 177 kts | 249° |
| 2026-04-29 18:22 | 35.67173 | -0.47132 | 2657 ft | 176 kts | 248° |
| 2026-04-29 18:23 | 35.66698 | -0.48528 | 2439 ft | 177 kts | 248° |
| 2026-04-29 18:23 | 35.66224 | -0.49924 | 2214 ft | 175 kts | 248° |
| 2026-04-29 18:23 | 35.65748 | -0.51322 | 1972 ft | 177 kts | 250° |
| 2026-04-29 18:23 | 35.65269 | -0.52732 | 1746 ft | 179 kts | 250° |
| 2026-04-29 18:24 | 35.64790 | -0.54145 | 1496 ft | 178 kts | 249° |
| 2026-04-29 18:24 | 35.64313 | -0.55541 | 1244 ft | 176 kts | 250° |
| 2026-04-29 18:24 | 35.63867 | -0.56852 | 1022 ft | 163 kts | 249° |
| 2026-04-29 18:24 | 35.63421 | -0.58137 | 809 ft | 162 kts | 252° |
| 2026-04-29 18:25 | 35.62999 | -0.59436 | 617 ft | 164 kts | 250° |
| 2026-04-29 18:25 | 35.62551 | -0.60718 | 403 ft | 161 kts | 251° |
| 2026-04-29 18:25 | 35.62149 | -0.61940 | 318 ft | 139 kts | 247° |
| 2026-04-29 18:25 | 35.61814 | -0.62917 | 316 ft | 107 kts | 246° |
| 2026-04-29 18:26 | 35.61626 | -0.63468 | 316 ft | 39 kts | 244° |
| 2026-04-29 18:26 | 35.61534 | -0.63524 | 318 ft | 5 kts | 154° |
| 2026-04-29 18:26 | 35.61517 | -0.63506 | 317 ft | 4 kts | 142° |
| 2026-04-29 18:26 | 35.61469 | -0.63461 | 317 ft | 14 kts | 142° |
| 2026-04-29 18:27 | 35.61421 | -0.63394 | 317 ft | 6 kts | 117° |
| 2026-04-29 18:27 | 35.61406 | -0.63352 | 316 ft | 5 kts | 111° |
| 2026-04-29 18:27 | 35.61399 | -0.63317 | 317 ft | 4 kts | 99° |
| 2026-04-29 18:27 | 35.61403 | -0.63270 | 317 ft | 8 kts | 73° |
| 2026-04-29 18:28 | 35.61430 | -0.63183 | 316 ft | 13 kts | 68° |
| 2026-04-29 18:28 | 35.61466 | -0.63079 | 317 ft | 14 kts | 66° |
| 2026-04-29 18:28 | 35.61514 | -0.62943 | 316 ft | 20 kts | 66° |
| 2026-04-29 18:28 | 35.61573 | -0.62765 | 316 ft | 25 kts | 68° |
| 2026-04-29 18:29 | 35.61646 | -0.62550 | 317 ft | 30 kts | 67° |
| 2026-04-29 18:29 | 35.61700 | -0.62392 | 317 ft | 28 kts | 67° |
| 2026-04-29 18:29 | 35.61810 | -0.62071 | 317 ft | 34 kts | 68° |
| 2026-04-29 18:29 | 35.61894 | -0.61827 | 316 ft | 23 kts | 68° |
| 2026-04-29 18:30 | 35.61961 | -0.61626 | 315 ft | 28 kts | 67° |
| 2026-04-29 18:30 | 35.62043 | -0.61389 | 317 ft | 32 kts | 67° |
| 2026-04-29 18:30 | 35.62124 | -0.61153 | 317 ft | 24 kts | 67° |
| 2026-04-29 18:30 | 35.62151 | -0.61039 | 317 ft | 6 kts | 97° |
| 2026-04-29 18:31 | 35.62126 | -0.61004 | 317 ft | 7 kts | 140° |
| 2026-04-29 18:31 | 35.62100 | -0.60968 | 317 ft | 3 kts | 116° |
| 2026-04-29 18:31 | 35.62099 | -0.60949 | 317 ft | 3 kts | 87° |
| 2026-04-29 18:31 | 35.62110 | -0.60906 | 317 ft | 7 kts | 70° |
| 2026-04-29 18:32 | 35.62133 | -0.60834 | 317 ft | 11 kts | 68° |
| 2026-04-29 18:32 | 35.62166 | -0.60736 | 316 ft | 9 kts | 67° |
| 2026-04-29 18:32 | 35.62187 | -0.60675 | 317 ft | 7 kts | 67° |
| 2026-04-29 18:33 | 35.62211 | -0.60603 | 317 ft | 11 kts | 67° |
| 2026-04-29 18:33 | 35.62221 | -0.60543 | 317 ft | 4 kts | 109° |
| 2026-04-29 18:33 | 35.62210 | -0.60535 | 317 ft | 2 kts | 153° |
| 2026-04-29 18:33 | 35.62191 | -0.60527 | 317 ft | 4 kts | 161° |
| 2026-04-29 18:34 | 35.62176 | -0.60514 | 317 ft | 1 kts | 130° |
| 2026-04-29 18:34 | 35.62176 | -0.60512 | 317 ft | 1 kts | 121° |
| 2026-04-29 18:34 | 35.62175 | -0.60498 | 317 ft | 0 kts | 90° |
| 2026-04-29 18:34 | 35.62177 | -0.60495 | 317 ft | 0 kts | 71° |
| 2026-04-29 18:35 | 35.62180 | -0.60493 | 317 ft | 0 kts | 54° |
| 2026-04-29 18:35 | 35.62183 | -0.60491 | 317 ft | 0 kts | 37° |
| 2026-04-29 18:35 | 35.62186 | -0.60491 | 317 ft | 0 kts | 24° |